Skip Navigation Links
NOAA logo - Click to go to the NOAA homepage
NOAA's National Weather Service
Alaska Aviation Weather Unit
  NWS logo - Click to go to the NWS homepage
Left Navbar Graphic     23 AKDT = 07 GMT

   
NOAA is celebrating 200 years of science, service, and stewardship. Visit the NOAA 200th celebration Web site to learn more.
USA.gov is the U.S. Government's official Web portal to all Federal, state and local government Web resources and services.
Facebook
NWS on Facebook

Important Change Regarding the AAWU Web Presence

 

Over the last several months, the AAWU has been working to navigate its webpages to a nationally supported server. Security, as well as other needs, have necessitated the change.  In the process, we have made an effort to enhance the functionality of our website, as well as some of our products. As of June 20, 2017, aawu.arh.noaa.gov will be discontinued. The new AAWU web address is weather.gov/aawu. It is now live and will run in-parallel with the old site until it is discontinued. Please send any feedback or questions regarding the new webpages to nws.ar.aawu.webauthors@noaa.gov.  Thank you for your patience during this time of transition.
AAWU Home :: Display TAF Add Bookmark
TAF PADL 240530Z 2406/2506 15010KT 4SM -RA BR BKN005 OVC012
      TEMPO 2406/2408 SCT005 OVC012
     FM241600 19015G22KT P6SM -SHRA SCT010 BKN025 OVC035
     FM250300 17007KT P6SM -SHRA SCT025 BKN035=
METAR PADL 240156Z 17015KT 10SM -RA BKN010 OVC019 08/07 A2991=

METAR PADL 240256Z 16010KT 9SM -RA SCT006 OVC012 08/07 A2988=

METAR PADL 240356Z 15008KT 5SM -RA BR SCT005 OVC010 08/07 A2986=

METAR PADL 240456Z 16011KT 3SM RA BR SCT005 OVC010 08/07 A2983=

METAR PADL 240556Z AUTO 19009G15KT 10SM -RA SCT005 OVC010 08/07
     A2982=

SPECI PADL 240603Z AUTO 20010G15KT 10SM -RA BKN005 OVC049 07/07 A2982
     RMK AO2 CIG 005V011 P0000=

PADL 240610Z AUTO 20007G15KT 170V250 10SM -RA SCT007 OVC049 07/07
A2982=

PADL 240638Z AUTO 19010G14KT 10SM -RA BKN011 BKN016 OVC060 07/06
A2982=

METAR PADL 240656Z AUTO 19009G16KT 10SM -RA BKN011 OVC015 07/06
     A2982=

PADL 240704Z AUTO VRB06G16KT 10SM -RA BKN009 OVC015 07/06 A2982=


NOAA's National Weather Service
Alaska Aviation Weather Unit
6930 Sand Lake Road
Anchorage, AK 99502-1845
Disclaimer
Credits
Glossary
Privacy Policy
About Us
Career Opportunities
Contact AAWU Internet Services Site last modified: April, 17th 2012